Time,TemperatureF,DewpointF,PressureIn,WindDirection,WindDirectionDegrees,WindSpeedMPH,WindSpeedGustMPH,Humidity,HourlyPrecipIn,Conditions,Clouds,dailyrainin,SoftwareType,DateUTC
2013-03-01 00:12:00,36.9,11.2,30.07,NE,45,3.7,-999.0,34,-99.99,,,0.00,Acu-Link.com,2013-03-01 07:12:00,
2013-03-01 00:27:00,36.5,10.8,30.06,NNE,22,0.0,-999.0,34,-99.99,,,0.00,Acu-Link.com,2013-03-01 07:27:00,
2013-03-01 00:42:00,36.1,11.1,30.07,ENE,67,2.7,-999.0,35,-99.99,,,0.00,Acu-Link.com,2013-03-01 07:42:00,
2013-03-01 00:58:00,36.0,11.0,30.07,ENE,67,1.7,-999.0,35,-99.99,,,0.00,Acu-Link.com,2013-03-01 07:58:00,
2013-03-01 01:13:00,36.9,11.8,30.08,North,0,2.2,-999.0,35,-99.99,,,0.00,Acu-Link.com,2013-03-01 08:13:00,
2013-03-01 01:28:00,37.0,11.3,30.07,NE,45,2.7,-999.0,34,-99.99,,,0.00,Acu-Link.com,2013-03-01 08:28:00,
2013-03-01 01:43:00,37.0,11.3,30.06,ESE,112,3.2,-999.0,34,-99.99,,,0.00,Acu-Link.com,2013-03-01 08:43:00,
2013-03-01 01:59:00,36.7,11.7,30.07,NNE,22,1.1,-999.0,35,-99.99,,,0.00,Acu-Link.com,2013-03-01 08:59:00,
2013-03-01 02:20:00,36.3,11.3,30.06,East,90,0.0,-999.0,35,-99.99,,,0.00,Acu-Link.com,2013-03-01 09:20:00,
2013-03-01 02:35:00,36.3,12.6,30.08,SSE,157,2.2,-999.0,37,-99.99,,,0.00,Acu-Link.com,2013-03-01 09:35:00,
2013-03-01 02:50:00,36.7,12.9,30.07,ESE,112,0.0,-999.0,37,-99.99,,,0.00,Acu-Link.com,2013-03-01 09:50:00,
2013-03-01 03:05:00,36.1,13.0,30.09,East,90,2.7,-999.0,38,-99.99,,,0.00,Acu-Link.com,2013-03-01 10:05:00,
2013-03-01 03:20:00,36.5,13.3,30.08,SE,135,3.7,-999.0,38,-99.99,,,0.00,Acu-Link.com,2013-03-01 10:20:00,
2013-03-01 03:35:00,36.5,13.3,30.08,SSE,157,1.7,-999.0,38,-99.99,,,0.00,Acu-Link.com,2013-03-01 10:35:00,
2013-03-01 03:51:00,35.4,12.9,30.08,NNE,22,1.1,-999.0,39,-99.99,,,0.00,Acu-Link.com,2013-03-01 10:51:00,
2013-03-01 04:06:00,35.2,13.3,30.09,NNE,22,4.2,-999.0,40,-99.99,,,0.00,Acu-Link.com,2013-03-01 11:06:00,
2013-03-01 04:21:00,35.1,13.2,30.09,ENE,67,3.2,-999.0,40,-99.99,,,0.00,Acu-Link.com,2013-03-01 11:21:00,
2013-03-01 04:37:00,34.5,13.3,30.09,East,90,0.0,-999.0,41,-99.99,,,0.00,Acu-Link.com,2013-03-01 11:37:00,
2013-03-01 04:52:00,33.4,13.3,30.09,West,270,1.1,-999.0,43,-99.99,,,0.00,Acu-Link.com,2013-03-01 11:52:00,
2013-03-01 05:07:00,34.3,14.2,30.10,NE,45,2.7,-999.0,43,-99.99,,,0.00,Acu-Link.com,2013-03-01 12:07:00,
2013-03-01 05:22:00,34.2,14.1,30.10,NE,45,0.0,-999.0,43,-99.99,,,0.00,Acu-Link.com,2013-03-01 12:22:00,
2013-03-01 05:38:00,33.8,13.7,30.09,ESE,112,0.0,-999.0,43,-99.99,,,0.00,Acu-Link.com,2013-03-01 12:38:00,
2013-03-01 05:53:00,33.3,13.2,30.10,East,90,0.0,-999.0,43,-99.99,,,0.00,Acu-Link.com,2013-03-01 12:53:00,
2013-03-01 06:08:00,33.4,13.9,30.10,West,270,3.2,-999.0,44,-99.99,,,0.00,Acu-Link.com,2013-03-01 13:08:00,
2013-03-01 06:23:00,33.6,14.6,30.10,East,90,1.1,-999.0,45,-99.99,,,0.00,Acu-Link.com,2013-03-01 13:23:00,
2013-03-01 06:39:00,33.4,13.9,30.11,NNE,22,0.0,-999.0,44,-99.99,,,0.00,Acu-Link.com,2013-03-01 13:39:00,
2013-03-01 06:54:00,34.0,14.4,30.11,ENE,67,1.1,-999.0,44,-99.99,,,0.00,Acu-Link.com,2013-03-01 13:54:00,
2013-03-01 07:09:00,34.3,14.7,30.11,East,90,1.7,-999.0,44,-99.99,,,0.00,Acu-Link.com,2013-03-01 14:09:00,
2013-03-01 07:24:00,34.5,14.3,30.13,SSW,202,0.0,-999.0,43,-99.99,,,0.00,Acu-Link.com,2013-03-01 14:24:00,
2013-03-01 07:40:00,37.8,16.2,30.14,ESE,112,1.7,-999.0,41,-99.99,,,0.00,Acu-Link.com,2013-03-01 14:40:00,
2013-03-01 07:55:00,40.8,16.6,30.14,SE,135,0.0,-999.0,37,-99.99,,,0.00,Acu-Link.com,2013-03-01 14:55:00,
2013-03-01 08:10:00,44.4,17.8,30.16,South,180,3.7,-999.0,34,-99.99,,,0.00,Acu-Link.com,2013-03-01 15:10:00,
2013-03-01 08:25:00,44.2,16.9,30.14,SE,135,1.1,-999.0,33,-99.99,,,0.00,Acu-Link.com,2013-03-01 15:25:00,
2013-03-01 08:40:00,45.3,18.6,30.13,ENE,67,1.7,-999.0,34,-99.99,,,0.00,Acu-Link.com,2013-03-01 15:40:00,
2013-03-01 08:56:00,45.3,18.6,30.15,ESE,112,2.2,-999.0,34,-99.99,,,0.00,Acu-Link.com,2013-03-01 15:56:00,
2013-03-01 09:11:00,46.6,19.1,30.13,SSW,202,2.2,-999.0,33,-99.99,,,0.00,Acu-Link.com,2013-03-01 16:11:00,
2013-03-01 09:26:00,47.1,18.8,30.13,East,90,2.7,-999.0,32,-99.99,,,0.00,Acu-Link.com,2013-03-01 16:26:00,
2013-03-01 09:41:00,48.6,19.4,30.13,East,90,2.7,-999.0,31,-99.99,,,0.00,Acu-Link.com,2013-03-01 16:41:00,
2013-03-01 09:56:00,49.6,20.2,30.12,South,180,3.7,-999.0,31,-99.99,,,0.00,Acu-Link.com,2013-03-01 16:56:00,
2013-03-01 10:12:00,51.6,21.2,30.12,WNW,292,2.7,-999.0,30,-99.99,,,0.00,Acu-Link.com,2013-03-01 17:12:00,
2013-03-01 10:27:00,53.1,21.7,30.10,NE,45,3.2,-999.0,29,-99.99,,,0.00,Acu-Link.com,2013-03-01 17:27:00,
2013-03-01 10:42:00,52.0,21.5,30.11,SE,135,2.7,-999.0,30,-99.99,,,0.00,Acu-Link.com,2013-03-01 17:42:00,
2013-03-01 10:58:00,54.1,21.7,30.09,North,0,2.2,-999.0,28,-99.99,,,0.00,Acu-Link.com,2013-03-01 17:58:00,
2013-03-01 11:13:00,54.9,21.6,30.10,East,90,3.7,-999.0,27,-99.99,,,0.00,Acu-Link.com,2013-03-01 18:13:00,
2013-03-01 11:28:00,55.2,21.8,30.11,ENE,67,1.7,-999.0,27,-99.99,,,0.00,Acu-Link.com,2013-03-01 18:28:00,
2013-03-01 11:44:00,55.2,21.8,30.10,South,180,0.0,-999.0,27,-99.99,,,0.00,Acu-Link.com,2013-03-01 18:44:00,
2013-03-01 11:59:00,56.7,23.1,30.09,NE,45,4.2,-999.0,27,-99.99,,,0.00,Acu-Link.com,2013-03-01 18:59:00,
2013-03-01 12:14:00,57.9,21.3,30.08,ENE,67,1.7,-999.0,24,-99.99,,,0.00,Acu-Link.com,2013-03-01 19:14:00,
2013-03-01 12:30:00,60.4,23.5,30.07,SW,225,3.7,-999.0,24,-99.99,,,0.00,Acu-Link.com,2013-03-01 19:30:00,
2013-03-01 12:45:00,60.1,23.2,30.07,West,270,6.3,-999.0,24,-99.99,,,0.00,Acu-Link.com,2013-03-01 19:45:00,
2013-03-01 13:00:00,60.4,23.5,30.06,NNW,337,6.8,-999.0,24,-99.99,,,0.00,Acu-Link.com,2013-03-01 20:00:00,
2013-03-01 13:15:00,61.0,22.9,30.06,SSW,202,1.1,-999.0,23,-99.99,,,0.00,Acu-Link.com,2013-03-01 20:15:00,
2013-03-01 13:30:00,61.5,23.4,30.04,SW,225,5.3,-999.0,23,-99.99,,,0.00,Acu-Link.com,2013-03-01 20:30:00,
2013-03-01 13:45:00,61.7,23.5,30.04,South,180,2.7,-999.0,23,-99.99,,,0.00,Acu-Link.com,2013-03-01 20:45:00,
2013-03-01 14:01:00,61.9,23.7,30.02,North,0,4.2,-999.0,23,-99.99,,,0.00,Acu-Link.com,2013-03-01 21:01:00,
2013-03-01 14:16:00,62.4,24.1,30.03,NW,315,1.7,-999.0,23,-99.99,,,0.00,Acu-Link.com,2013-03-01 21:16:00,
2013-03-01 14:31:00,62.1,23.9,30.03,WSW,247,3.2,-999.0,23,-99.99,,,0.00,Acu-Link.com,2013-03-01 21:31:00,
2013-03-01 14:47:00,61.5,23.4,30.02,SSW,202,1.7,-999.0,23,-99.99,,,0.00,Acu-Link.com,2013-03-01 21:47:00,
2013-03-01 15:02:00,61.2,23.1,30.01,NNE,22,4.2,-999.0,23,-99.99,,,0.00,Acu-Link.com,2013-03-01 22:02:00,
2013-03-01 15:17:00,62.8,24.5,30.03,WSW,247,5.3,-999.0,23,-99.99,,,0.00,Acu-Link.com,2013-03-01 22:17:00,
2013-03-01 15:33:00,62.1,23.9,30.00,SW,225,2.7,-999.0,23,-99.99,,,0.00,Acu-Link.com,2013-03-01 22:33:00,
2013-03-01 15:48:00,62.1,22.8,30.01,SW,225,1.7,-999.0,22,-99.99,,,0.00,Acu-Link.com,2013-03-01 22:48:00,
2013-03-01 16:03:00,62.1,23.9,30.00,West,270,4.7,-999.0,23,-99.99,,,0.00,Acu-Link.com,2013-03-01 23:03:00,
2013-03-01 16:18:00,62.6,24.3,30.00,SW,225,2.7,-999.0,23,-99.99,,,0.00,Acu-Link.com,2013-03-01 23:18:00,
2013-03-01 16:34:00,62.1,23.9,30.00,SSW,202,4.2,-999.0,23,-99.99,,,0.00,Acu-Link.com,2013-03-01 23:34:00,
2013-03-01 16:49:00,61.2,24.1,30.00,NE,45,2.7,-999.0,24,-99.99,,,0.00,Acu-Link.com,2013-03-01 23:49:00,
2013-03-01 17:04:00,60.8,24.8,30.00,WSW,247,1.7,-999.0,25,-99.99,,,0.00,Acu-Link.com,2013-03-02 00:04:00,
2013-03-01 17:19:00,59.7,25.7,30.01,South,180,2.2,-999.0,27,-99.99,,,0.00,Acu-Link.com,2013-03-02 00:19:00,
2013-03-01 17:35:00,58.8,25.8,30.01,North,0,5.3,-999.0,28,-99.99,,,0.00,Acu-Link.com,2013-03-02 00:35:00,
2013-03-01 17:50:00,57.0,25.9,30.01,SW,225,3.7,-999.0,30,-99.99,,,0.00,Acu-Link.com,2013-03-02 00:50:00,
2013-03-01 18:05:00,55.8,25.6,30.02,NNW,337,1.7,-999.0,31,-99.99,,,0.00,Acu-Link.com,2013-03-02 01:05:00,
2013-03-01 18:21:00,54.3,25.1,30.03,NW,315,3.2,-999.0,32,-99.99,,,0.00,Acu-Link.com,2013-03-02 01:21:00,
2013-03-01 18:36:00,53.6,25.2,30.03,NW,315,2.2,-999.0,33,-99.99,,,0.00,Acu-Link.com,2013-03-02 01:36:00,
2013-03-01 18:51:00,52.3,25.5,30.05,ESE,112,1.7,-999.0,35,-99.99,,,0.00,Acu-Link.com,2013-03-02 01:51:00,
2013-03-01 19:06:00,51.6,25.5,30.04,WSW,247,1.1,-999.0,36,-99.99,,,0.00,Acu-Link.com,2013-03-02 02:06:00,
2013-03-01 19:21:00,51.3,25.3,30.05,South,180,0.0,-999.0,36,-99.99,,,0.00,Acu-Link.com,2013-03-02 02:21:00,
2013-03-01 19:37:00,50.5,25.2,30.05,ESE,112,0.0,-999.0,37,-99.99,,,0.00,Acu-Link.com,2013-03-02 02:37:00,
2013-03-01 19:52:00,49.3,24.8,30.07,East,90,0.0,-999.0,38,-99.99,,,0.00,Acu-Link.com,2013-03-02 02:52:00,
2013-03-01 20:07:00,48.7,24.9,30.07,ESE,112,0.0,-999.0,39,-99.99,,,0.00,Acu-Link.com,2013-03-02 03:07:00,
2013-03-01 20:23:00,48.4,25.2,30.08,NE,45,0.0,-999.0,40,-99.99,,,0.00,Acu-Link.com,2013-03-02 03:23:00,
2013-03-01 20:38:00,47.3,25.4,30.07,East,90,0.0,-999.0,42,-99.99,,,0.00,Acu-Link.com,2013-03-02 03:38:00,
2013-03-01 20:53:00,46.6,25.3,30.10,ESE,112,0.0,-999.0,43,-99.99,,,0.00,Acu-Link.com,2013-03-02 03:53:00,
2013-03-01 21:08:00,46.9,25.6,30.10,SE,135,0.0,-999.0,43,-99.99,,,0.00,Acu-Link.com,2013-03-02 04:08:00,
2013-03-01 21:24:00,47.8,26.4,30.10,WSW,247,1.1,-999.0,43,-99.99,,,0.00,Acu-Link.com,2013-03-02 04:24:00,
2013-03-01 21:39:00,47.7,26.3,30.10,North,0,2.7,-999.0,43,-99.99,,,0.00,Acu-Link.com,2013-03-02 04:39:00,
2013-03-01 21:54:00,47.5,26.1,30.11,SSW,202,0.0,-999.0,43,-99.99,,,0.00,Acu-Link.com,2013-03-02 04:54:00,
2013-03-01 22:10:00,47.5,26.1,30.11,SSE,157,0.0,-999.0,43,-99.99,,,0.00,Acu-Link.com,2013-03-02 05:10:00,
2013-03-01 22:25:00,45.5,24.9,30.11,SSE,157,0.0,-999.0,44,-99.99,,,0.00,Acu-Link.com,2013-03-02 05:25:00,
2013-03-01 22:40:00,44.4,24.9,30.12,WSW,247,0.0,-999.0,46,-99.99,,,0.00,Acu-Link.com,2013-03-02 05:40:00,
2013-03-01 22:56:00,42.8,24.5,30.11,SSE,157,0.0,-999.0,48,-99.99,,,0.00,Acu-Link.com,2013-03-02 05:56:00,
2013-03-01 23:11:00,43.5,25.6,30.12,ESE,112,0.0,-999.0,49,-99.99,,,0.00,Acu-Link.com,2013-03-02 06:11:00,
2013-03-01 23:26:00,44.1,26.2,30.12,ENE,67,2.2,-999.0,49,-99.99,,,0.00,Acu-Link.com,2013-03-02 06:26:00,
2013-03-01 23:41:00,43.7,25.3,30.13,SE,135,0.0,-999.0,48,-99.99,,,0.00,Acu-Link.com,2013-03-02 06:41:00,
2013-03-01 23:57:00,42.1,24.3,30.14,NNE,22,0.0,-999.0,49,-99.99,,,0.00,Acu-Link.com,2013-03-02 06:57:00,